Time;durP1;ratioP1;P1;durP2;ratioP2;P2;SDS_P1;SDS_P2;PMS_P1;PMS_P2;Temp;Humidity;BMP_temperature;BMP_pressure;BME280_temperature;BME280_humidity;BME280_pressure;Samples;Min_cycle;Max_cycle;Signal;HPM_P1;HPM_P2
2021/03/05 00:00:39;;;;;;;3.78;2.47;;;;;;;;;;5029695;28;20531;-50
2021/03/05 00:03:05;;;;;;;3.88;2.55;;;;;;;;;;5033817;28;20211;-50
2021/03/05 00:05:32;;;;;;;4.18;2.60;;;;;;;;;;5033574;28;20579;-50
2021/03/05 00:07:58;;;;;;;3.42;2.53;;;;;;;;;;5015872;28;20267;-50
2021/03/05 00:10:26;;;;;;;3.75;2.72;;;;;;;;;;5014177;28;20181;-50
2021/03/05 00:12:52;;;;;;;2.40;2.15;;;;;;;;;;5029911;28;20316;-50
2021/03/05 00:15:19;;;;;;;3.10;2.75;;;;;;;;;;5024442;28;20660;-50
2021/03/05 00:17:46;;;;;;;2.85;2.38;;;;;;;;;;5031623;28;20188;-50
2021/03/05 00:20:13;;;;;;;2.70;2.33;;;;;;;;;;5033682;28;20614;-50
2021/03/05 00:22:39;;;;;;;3.05;2.20;;;;;;;;;;5033948;28;20565;-50
2021/03/05 00:25:06;;;;;;;3.15;2.35;;;;;;;;;;5029442;28;20180;-50
2021/03/05 00:27:32;;;;;;;2.65;2.17;;;;;;;;;;5028116;28;20191;-50
2021/03/05 00:29:58;;;;;;;3.22;2.38;;;;;;;;;;5018025;28;20187;-50
2021/03/05 00:32:24;;;;;;;2.58;2.10;;;;;;;;;;5023295;28;20183;-50
2021/03/05 00:34:50;;;;;;;2.50;2.25;;;;;;;;;;5017959;28;20505;-50
2021/03/05 00:37:16;;;;;;;3.05;2.17;;;;;;;;;;5017899;28;20418;-50
2021/03/05 00:39:42;;;;;;;2.72;2.08;;;;;;;;;;5014920;28;20267;-50
2021/03/05 00:42:09;;;;;;;2.70;2.30;;;;;;;;;;5019461;28;20491;-50
2021/03/05 00:44:35;;;;;;;2.65;2.20;;;;;;;;;;5015004;28;20192;-50
2021/03/05 00:47:01;;;;;;;2.95;2.22;;;;;;;;;;5029085;28;20198;-49
2021/03/05 00:49:27;;;;;;;2.72;2.05;;;;;;;;;;5030348;28;20202;-50
2021/03/05 00:51:53;;;;;;;2.10;1.90;;;;;;;;;;5016076;28;20191;-50
2021/03/05 00:54:19;;;;;;;2.50;2.08;;;;;;;;;;5018881;28;20295;-50
2021/03/05 00:56:45;;;;;;;2.67;2.47;;;;;;;;;;5021058;28;20295;-50
2021/03/05 00:59:11;;;;;;;2.40;2.03;;;;;;;;;;5033046;28;20586;-50
2021/03/05 01:01:37;;;;;;;2.58;2.38;;;;;;;;;;5017408;28;20219;-50
2021/03/05 01:04:03;;;;;;;2.30;2.00;;;;;;;;;;5013288;28;20640;-50
2021/03/05 01:06:29;;;;;;;2.35;2.08;;;;;;;;;;5020136;28;20192;-50
2021/03/05 01:08:56;;;;;;;3.33;2.35;;;;;;;;;;5021018;28;20185;-50
2021/03/05 01:11:22;;;;;;;2.47;2.28;;;;;;;;;;5013876;28;20490;-50
2021/03/05 01:13:48;;;;;;;2.13;1.92;;;;;;;;;;5019336;28;20647;-50
2021/03/05 01:16:14;;;;;;;2.42;2.22;;;;;;;;;;5026262;28;20191;-50
2021/03/05 01:18:40;;;;;;;2.63;1.92;;;;;;;;;;5018385;28;20567;-50
2021/03/05 01:21:06;;;;;;;2.10;1.77;;;;;;;;;;5017094;28;20173;-50
2021/03/05 01:23:32;;;;;;;2.38;2.00;;;;;;;;;;5018303;28;20187;-50
2021/03/05 01:25:59;;;;;;;2.15;1.88;;;;;;;;;;5028992;28;20188;-50
2021/03/05 01:28:25;;;;;;;2.90;2.00;;;;;;;;;;5019313;28;20234;-50
2021/03/05 01:30:51;;;;;;;2.70;2.20;;;;;;;;;;5028706;28;20553;-50
2021/03/05 01:33:17;;;;;;;1.98;1.75;;;;;;;;;;5017622;28;20200;-50
2021/03/05 01:35:43;;;;;;;2.78;2.03;;;;;;;;;;5018205;28;20181;-50
2021/03/05 01:38:09;;;;;;;2.13;1.90;;;;;;;;;;5036112;28;20223;-50
2021/03/05 01:40:40;;;;;;;2.03;1.83;;;;;;;;;;5018049;28;20825;-50
2021/03/05 01:43:07;;;;;;;2.50;2.10;;;;;;;;;;5016673;28;20196;-50
2021/03/05 01:45:33;;;;;;;2.10;1.90;;;;;;;;;;5022503;28;20192;-50
2021/03/05 01:48:01;;;;;;;2.85;1.77;;;;;;;;;;5017069;28;20614;-50
2021/03/05 01:50:33;;;;;;;2.33;1.70;;;;;;;;;;5018377;28;20201;-50
2021/03/05 01:53:00;;;;;;;1.55;1.45;;;;;;;;;;5035915;28;20455;-50
2021/03/05 01:55:26;;;;;;;2.25;1.65;;;;;;;;;;5015885;28;20184;-50
2021/03/05 01:57:53;;;;;;;2.45;2.10;;;;;;;;;;5018882;28;20591;-50
2021/03/05 02:00:21;;;;;;;2.10;1.88;;;;;;;;;;5020394;28;20253;-50
2021/03/05 02:02:48;;;;;;;1.90;1.70;;;;;;;;;;5024018;28;20748;-50
2021/03/05 02:05:14;;;;;;;2.38;1.83;;;;;;;;;;5017370;28;20619;-50
2021/03/05 02:07:40;;;;;;;1.90;1.80;;;;;;;;;;5031724;28;20191;-50
2021/03/05 02:10:07;;;;;;;1.85;1.75;;;;;;;;;;5036054;28;20196;-50
2021/03/05 02:12:33;;;;;;;1.58;1.48;;;;;;;;;;5032255;28;20187;-50
2021/03/05 02:15:00;;;;;;;1.70;1.40;;;;;;;;;;5030064;28;20481;-50
2021/03/05 02:17:27;;;;;;;1.60;1.50;;;;;;;;;;5029381;28;20207;-50
2021/03/05 02:20:08;;;;;;;1.42;1.33;;;;;;;;;;5020387;28;20437;-50
2021/03/05 02:22:53;;;;;;;1.70;1.60;;;;;;;;;;5034352;28;20184;-50
2021/03/05 02:25:34;;;;;;;1.60;1.50;;;;;;;;;;5035022;28;20183;-50
2021/03/05 02:28:19;;;;;;;1.83;1.67;;;;;;;;;;5030192;28;20188;-50
2021/03/05 02:30:54;;;;;;;1.88;1.65;;;;;;;;;;5017352;28;20198;-50
2021/03/05 02:33:27;;;;;;;1.40;1.30;;;;;;;;;;5021275;28;20199;-50
2021/03/05 02:35:55;;;;;;;1.40;1.30;;;;;;;;;;5026717;28;20239;-50
2021/03/05 02:38:24;;;;;;;3.35;1.55;;;;;;;;;;5024897;28;20358;-50
2021/03/05 02:40:52;;;;;;;1.88;1.50;;;;;;;;;;5031138;28;20181;-50
2021/03/05 02:43:20;;;;;;;1.35;1.25;;;;;;;;;;5024590;28;20234;-50
2021/03/05 02:45:47;;;;;;;3.03;1.55;;;;;;;;;;5026404;28;20188;-50
2021/03/05 02:48:14;;;;;;;1.35;1.25;;;;;;;;;;5035349;28;20180;-50
2021/03/05 02:50:45;;;;;;;1.45;1.35;;;;;;;;;;5026357;28;20579;-50
2021/03/05 02:53:13;;;;;;;1.20;1.10;;;;;;;;;;5015279;28;20622;-50
2021/03/05 02:55:43;;;;;;;1.48;1.38;;;;;;;;;;5014857;28;20184;-50
2021/03/05 02:58:09;;;;;;;1.65;1.33;;;;;;;;;;5030690;28;20187;-50
2021/03/05 03:00:36;;;;;;;1.10;1.00;;;;;;;;;;5028655;28;20596;-50
2021/03/05 03:03:02;;;;;;;1.33;1.23;;;;;;;;;;5027837;28;20211;-50
2021/03/05 03:05:29;;;;;;;1.52;1.42;;;;;;;;;;5033778;28;20179;-50
2021/03/05 03:07:56;;;;;;;1.58;1.40;;;;;;;;;;5033283;28;20617;-50
2021/03/05 03:10:23;;;;;;;1.33;1.10;;;;;;;;;;5034729;28;20191;-50
2021/03/05 03:12:52;;;;;;;1.30;1.20;;;;;;;;;;5031205;28;20278;-50
2021/03/05 03:15:18;;;;;;;1.30;1.20;;;;;;;;;;5020159;28;20176;-50
2021/03/05 03:17:45;;;;;;;1.10;1.00;;;;;;;;;;5026671;28;20458;-50
2021/03/05 03:20:13;;;;;;;1.30;1.20;;;;;;;;;;5034327;28;20526;-49
2021/03/05 03:22:39;;;;;;;1.30;1.20;;;;;;;;;;5034177;28;20602;-50
2021/03/05 03:25:06;;;;;;;1.27;1.17;;;;;;;;;;5033545;28;20305;-50
2021/03/05 03:27:32;;;;;;;1.58;1.48;;;;;;;;;;5019968;28;20251;-50
2021/03/05 03:29:59;;;;;;;1.33;1.23;;;;;;;;;;5018117;28;20283;-50
2021/03/05 03:32:26;;;;;;;1.10;1.00;;;;;;;;;;5034465;28;20190;-50
2021/03/05 03:34:52;;;;;;;1.67;1.20;;;;;;;;;;5033173;28;20587;-50
2021/03/05 03:37:19;;;;;;;1.05;1.00;;;;;;;;;;5033700;28;20198;-50
2021/03/05 03:39:45;;;;;;;1.23;1.20;;;;;;;;;;5022763;28;20268;-50
2021/03/05 03:42:11;;;;;;;1.40;1.30;;;;;;;;;;5018233;28;20272;-50
2021/03/05 03:44:37;;;;;;;1.10;1.00;;;;;;;;;;5015682;28;20586;-50
2021/03/05 03:47:04;;;;;;;1.40;1.30;;;;;;;;;;5031913;28;20270;-50
2021/03/05 03:49:36;;;;;;;1.30;1.20;;;;;;;;;;5034054;28;20243;-50
2021/03/05 03:52:12;;;;;;;1.35;1.25;;;;;;;;;;5032030;28;20617;-50
2021/03/05 03:54:38;;;;;;;1.55;1.20;;;;;;;;;;5013244;28;20211;-50
2021/03/05 03:57:05;;;;;;;1.10;1.10;;;;;;;;;;5014817;28;20184;-50
2021/03/05 03:59:32;;;;;;;1.40;1.30;;;;;;;;;;5015358;28;20191;-50
2021/03/05 04:01:59;;;;;;;1.30;1.20;;;;;;;;;;5020729;28;20666;-50
2021/03/05 04:04:27;;;;;;;1.38;1.27;;;;;;;;;;5028432;28;20176;-50
2021/03/05 04:06:53;;;;;;;1.60;1.48;;;;;;;;;;5028956;28;20192;-50
2021/03/05 04:09:20;;;;;;;1.20;1.10;;;;;;;;;;5033796;28;20180;-50
2021/03/05 04:11:46;;;;;;;0.90;0.90;;;;;;;;;;5025123;28;20526;-50
2021/03/05 04:14:12;;;;;;;1.20;1.10;;;;;;;;;;5019813;28;20246;-50
2021/03/05 04:16:39;;;;;;;1.35;1.23;;;;;;;;;;5025452;28;20180;-49
2021/03/05 04:19:05;;;;;;;1.17;1.08;;;;;;;;;;5033904;28;20229;-50
2021/03/05 04:21:38;;;;;;;0.98;0.98;;;;;;;;;;5032954;28;20258;-50
2021/03/05 04:24:04;;;;;;;1.30;1.20;;;;;;;;;;5020233;28;20557;-50
2021/03/05 04:26:31;;;;;;;1.20;1.10;;;;;;;;;;5021871;28;20559;-50
2021/03/05 04:28:57;;;;;;;1.20;1.10;;;;;;;;;;5013970;28;20440;-50
2021/03/05 04:31:23;;;;;;;1.10;1.00;;;;;;;;;;5025813;28;20187;-49
2021/03/05 04:33:49;;;;;;;1.05;1.05;;;;;;;;;;5014042;28;20242;-49
2021/03/05 04:36:15;;;;;;;0.98;0.98;;;;;;;;;;5017325;28;20184;-50
2021/03/05 04:38:41;;;;;;;1.10;1.00;;;;;;;;;;5014156;28;20180;-50
2021/03/05 04:41:07;;;;;;;0.98;0.93;;;;;;;;;;5023006;28;20275;-50
2021/03/05 04:43:33;;;;;;;0.93;0.93;;;;;;;;;;5028738;28;20244;-50
2021/03/05 04:45:59;;;;;;;0.88;0.88;;;;;;;;;;5018646;28;20196;-49
2021/03/05 04:48:25;;;;;;;0.88;0.88;;;;;;;;;;5022445;28;20181;-50
2021/03/05 04:50:51;;;;;;;0.73;0.68;;;;;;;;;;5018031;28;20191;-50
2021/03/05 04:53:17;;;;;;;0.70;0.70;;;;;;;;;;5017761;28;20223;-50
2021/03/05 04:55:43;;;;;;;0.80;0.80;;;;;;;;;;5025195;28;20265;-50
2021/03/05 04:58:10;;;;;;;0.90;0.90;;;;;;;;;;5035320;28;20176;-50
2021/03/05 05:00:36;;;;;;;1.40;1.30;;;;;;;;;;5032292;28;20210;-50
2021/03/05 05:03:02;;;;;;;0.98;0.98;;;;;;;;;;5032494;28;20180;-50
2021/03/05 05:05:28;;;;;;;0.80;0.80;;;;;;;;;;5021213;28;20448;-50
2021/03/05 05:07:57;;;;;;;0.80;0.80;;;;;;;;;;5032480;28;20187;-50
2021/03/05 05:10:23;;;;;;;1.23;1.13;;;;;;;;;;5033935;28;20176;-50
2021/03/05 05:12:49;;;;;;;0.90;0.90;;;;;;;;;;5033033;28;20195;-49
2021/03/05 05:15:15;;;;;;;0.80;0.80;;;;;;;;;;5031704;28;20212;-49
2021/03/05 05:17:42;;;;;;;1.13;0.80;;;;;;;;;;5029900;28;20585;-50
2021/03/05 05:20:08;;;;;;;1.10;1.00;;;;;;;;;;5036128;28;20222;-50
2021/03/05 05:22:35;;;;;;;0.90;0.90;;;;;;;;;;5035738;28;20180;-50
2021/03/05 05:25:01;;;;;;;0.93;0.93;;;;;;;;;;5016876;28;20602;-50
2021/03/05 05:27:28;;;;;;;0.88;0.88;;;;;;;;;;5027047;28;20187;-50
2021/03/05 05:29:54;;;;;;;1.17;1.08;;;;;;;;;;5026528;28;20187;-50
2021/03/05 05:32:20;;;;;;;1.02;1.00;;;;;;;;;;5027531;28;20271;-49
2021/03/05 05:34:45;;;;;;;1.00;1.00;;;;;;;;;;5016556;28;20239;-49
2021/03/05 05:37:11;;;;;;;1.02;0.90;;;;;;;;;;5025232;28;20192;-50
2021/03/05 05:39:38;;;;;;;1.00;1.00;;;;;;;;;;5033466;28;20188;-50
2021/03/05 05:42:06;;;;;;;0.93;0.93;;;;;;;;;;5016854;28;20730;-50
2021/03/05 05:44:32;;;;;;;0.70;0.70;;;;;;;;;;5018065;28;20240;-49
2021/03/05 05:46:59;;;;;;;0.85;0.85;;;;;;;;;;5029867;28;20229;-49
2021/03/05 05:49:26;;;;;;;0.90;0.90;;;;;;;;;;5025397;28;20176;-50
2021/03/05 05:51:53;;;;;;;0.80;0.80;;;;;;;;;;5035955;28;20198;-49
2021/03/05 05:54:23;;;;;;;0.80;0.80;;;;;;;;;;5034500;28;20200;-50
2021/03/05 05:56:51;;;;;;;0.55;0.55;;;;;;;;;;5030055;28;20191;-50
2021/03/05 05:59:17;;;;;;;0.75;0.75;;;;;;;;;;5028043;28;20176;-49
2021/03/05 06:01:43;;;;;;;0.88;0.80;;;;;;;;;;5023596;28;20206;-49
2021/03/05 06:04:09;;;;;;;0.80;0.80;;;;;;;;;;5027723;28;20177;-49
2021/03/05 06:06:37;;;;;;;0.77;0.77;;;;;;;;;;5025799;28;20196;-49
2021/03/05 06:09:04;;;;;;;0.90;0.90;;;;;;;;;;5035565;28;20184;-50
2021/03/05 06:11:37;;;;;;;0.80;0.80;;;;;;;;;;5029689;28;20184;-49
2021/03/05 06:14:10;;;;;;;0.88;0.75;;;;;;;;;;5032408;28;20199;-49
2021/03/05 06:16:51;;;;;;;1.25;1.15;;;;;;;;;;5021588;28;20184;-49
2021/03/05 06:19:18;;;;;;;0.90;0.90;;;;;;;;;;5015947;28;20181;-49
2021/03/05 06:21:44;;;;;;;1.10;1.00;;;;;;;;;;5015414;28;20168;-49
2021/03/05 06:24:10;;;;;;;0.88;0.88;;;;;;;;;;5015493;28;20511;-49
2021/03/05 06:26:54;;;;;;;0.90;0.90;;;;;;;;;;5023490;28;20184;-49
2021/03/05 06:29:21;;;;;;;0.63;0.63;;;;;;;;;;5015740;28;20259;-50
2021/03/05 06:32:00;;;;;;;0.90;0.90;;;;;;;;;;5030017;28;20183;-49
2021/03/05 06:34:27;;;;;;;0.77;0.77;;;;;;;;;;5015145;28;20250;-49
2021/03/05 06:36:57;;;;;;;0.75;0.75;;;;;;;;;;5020230;28;20238;-50
2021/03/05 06:39:27;;;;;;;0.70;0.70;;;;;;;;;;5023211;28;20219;-49
2021/03/05 06:42:00;;;;;;;0.80;0.80;;;;;;;;;;5029470;28;20215;-49
2021/03/05 06:44:26;;;;;;;1.13;0.90;;;;;;;;;;5021387;28;20189;-49
2021/03/05 06:46:52;;;;;;;0.88;0.88;;;;;;;;;;5023614;28;20188;-49
2021/03/05 06:49:19;;;;;;;0.60;0.60;;;;;;;;;;5034389;28;20672;-50
2021/03/05 06:51:51;;;;;;;0.85;0.70;;;;;;;;;;5035533;28;20180;-49
2021/03/05 06:54:17;;;;;;;0.80;0.80;;;;;;;;;;5030983;28;20203;-49
2021/03/05 06:56:50;;;;;;;1.55;0.80;;;;;;;;;;5032216;28;20177;-50
2021/03/05 06:59:18;;;;;;;1.10;1.00;;;;;;;;;;5014849;28;20184;-50
2021/03/05 07:01:49;;;;;;;0.90;0.80;;;;;;;;;;5027171;28;20196;-49
2021/03/05 07:04:20;;;;;;;2.45;1.20;;;;;;;;;;5014775;28;20606;-49
2021/03/05 07:06:46;;;;;;;0.85;0.75;;;;;;;;;;5020734;28;20196;-49
2021/03/05 07:09:23;;;;;;;1.15;0.95;;;;;;;;;;5030037;28;20202;-49
2021/03/05 07:11:51;;;;;;;0.98;0.90;;;;;;;;;;5019415;28;20188;-50
2021/03/05 07:14:17;;;;;;;1.10;1.00;;;;;;;;;;5018072;28;20295;-49
2021/03/05 07:16:43;;;;;;;0.95;0.90;;;;;;;;;;5022938;28;20306;-49
2021/03/05 07:19:10;;;;;;;1.23;1.13;;;;;;;;;;5023921;28;20215;-49
2021/03/05 07:21:38;;;;;;;1.00;1.00;;;;;;;;;;5018213;28;20247;-49
2021/03/05 07:24:05;;;;;;;1.05;0.90;;;;;;;;;;5027264;28;20192;-50
2021/03/05 07:26:35;;;;;;;0.88;0.88;;;;;;;;;;5035190;28;20183;-50
2021/03/05 07:29:01;;;;;;;0.90;0.90;;;;;;;;;;5032493;28;20450;-50
2021/03/05 07:31:29;;;;;;;1.38;0.88;;;;;;;;;;5027183;28;20495;-50
2021/03/05 07:34:00;;;;;;;1.25;1.15;;;;;;;;;;5025557;28;20501;-49
2021/03/05 07:36:28;;;;;;;2.88;1.20;;;;;;;;;;5024311;28;20283;-49
2021/03/05 07:38:57;;;;;;;1.25;1.15;;;;;;;;;;5014891;28;20185;-49
2021/03/05 07:41:24;;;;;;;2.63;1.20;;;;;;;;;;5025817;28;20615;-49
2021/03/05 07:43:50;;;;;;;3.85;1.33;;;;;;;;;;5033239;28;20198;-48
2021/03/05 07:46:16;;;;;;;2.42;1.77;;;;;;;;;;5032931;28;20183;-48
2021/03/05 07:48:42;;;;;;;3.03;1.70;;;;;;;;;;5033927;28;20186;-48
2021/03/05 07:51:09;;;;;;;5.72;1.95;;;;;;;;;;5017089;28;20188;-48
2021/03/05 07:53:54;;;;;;;7.78;2.20;;;;;;;;;;5014602;28;20209;-48
2021/03/05 07:56:39;;;;;;;4.90;2.03;;;;;;;;;;5013758;28;20183;-48
2021/03/05 07:59:05;;;;;;;12.73;2.65;;;;;;;;;;5014289;28;20164;-48
2021/03/05 08:01:50;;;;;;;5.50;2.25;;;;;;;;;;5014121;28;20212;-49
2021/03/05 08:04:16;;;;;;;7.72;2.60;;;;;;;;;;5023169;28;20565;-53
2021/03/05 08:06:42;;;;;;;8.60;2.67;;;;;;;;;;5034193;28;20214;-49
2021/03/05 08:09:13;;;;;;;5.72;2.30;;;;;;;;;;5033629;28;20203;-50
2021/03/05 08:11:39;;;;;;;8.82;2.90;;;;;;;;;;5033803;28;20176;-47
2021/03/05 08:14:26;;;;;;;6.18;2.40;;;;;;;;;;5033078;28;20195;-48
2021/03/05 08:16:53;;;;;;;9.43;2.90;;;;;;;;;;5029944;28;20260;-47
2021/03/05 08:19:18;;;;;;;4.97;2.70;;;;;;;;;;5032144;28;20182;-48
2021/03/05 08:21:55;;;;;;;7.28;2.70;;;;;;;;;;5033485;28;20258;-50
2021/03/05 08:24:21;;;;;;;10.27;2.58;;;;;;;;;;5033034;28;20171;-50
2021/03/05 08:27:02;;;;;;;7.95;2.47;;;;;;;;;;5033839;28;20594;-48
2021/03/05 08:29:47;;;;;;;7.90;2.53;;;;;;;;;;5032602;28;20190;-48
2021/03/05 08:32:32;;;;;;;13.43;3.15;;;;;;;;;;5022926;28;20711;-48
2021/03/05 08:34:58;;;;;;;8.30;2.83;;;;;;;;;;5012452;28;20303;-51
2021/03/05 08:37:31;;;;;;;4.55;2.35;;;;;;;;;;5013695;28;20192;-49
2021/03/05 08:40:17;;;;;;;6.85;2.60;;;;;;;;;;5014046;28;20242;-49
2021/03/05 08:42:43;;;;;;;7.88;2.72;;;;;;;;;;5014222;28;20223;-53
2021/03/05 08:45:14;;;;;;;4.63;2.30;;;;;;;;;;5012830;28;20246;-53
2021/03/05 08:47:41;;;;;;;4.00;2.35;;;;;;;;;;5019020;28;20511;-51
2021/03/05 08:50:08;;;;;;;5.43;2.35;;;;;;;;;;5017856;28;20187;-48
2021/03/05 08:52:35;;;;;;;6.78;2.70;;;;;;;;;;5030336;28;20602;-51
2021/03/05 08:55:04;;;;;;;5.50;2.40;;;;;;;;;;5022392;28;20216;-51
2021/03/05 08:57:37;;;;;;;6.80;2.50;;;;;;;;;;5025122;28;20598;-50
2021/03/05 09:00:04;;;;;;;6.30;2.65;;;;;;;;;;5030563;28;20230;-50
2021/03/05 09:02:30;;;;;;;4.30;2.05;;;;;;;;;;5016457;28;20602;-49
2021/03/05 09:04:56;;;;;;;6.90;2.08;;;;;;;;;;5022856;28;20231;-54
2021/03/05 09:07:22;;;;;;;3.83;2.30;;;;;;;;;;5011460;28;20243;-49
2021/03/05 09:09:52;;;;;;;5.97;2.13;;;;;;;;;;5012080;28;20189;-48
2021/03/05 09:12:25;;;;;;;6.07;2.33;;;;;;;;;;5011588;28;20208;-49
2021/03/05 09:14:58;;;;;;;4.25;2.08;;;;;;;;;;5011891;28;20200;-51
2021/03/05 09:17:25;;;;;;;3.47;2.00;;;;;;;;;;5020221;28;20183;-47
2021/03/05 09:19:51;;;;;;;4.93;1.98;;;;;;;;;;5033227;28;20191;-48
2021/03/05 09:22:18;;;;;;;5.65;2.25;;;;;;;;;;5016374;28;20208;-49
2021/03/05 09:24:50;;;;;;;4.28;1.95;;;;;;;;;;5013085;28;20164;-47
2021/03/05 09:27:36;;;;;;;3.17;2.22;;;;;;;;;;5024648;28;20196;-48
2021/03/05 09:30:16;;;;;;;5.68;2.25;;;;;;;;;;5013495;28;20172;-49
2021/03/05 09:32:49;;;;;;;3.75;2.15;;;;;;;;;;5024902;28;20241;-48
2021/03/05 09:35:16;;;;;;;4.00;2.13;;;;;;;;;;5035549;28;20286;-48
2021/03/05 09:37:42;;;;;;;4.05;2.00;;;;;;;;;;5035659;28;20779;-48
2021/03/05 09:40:09;;;;;;;3.88;1.75;;;;;;;;;;5036541;28;20184;-48
2021/03/05 09:42:46;;;;;;;5.15;1.70;;;;;;;;;;5036785;28;20507;-49
2021/03/05 09:45:12;;;;;;;4.63;1.98;;;;;;;;;;5035593;28;20180;-48
2021/03/05 09:47:45;;;;;;;6.57;2.00;;;;;;;;;;5036631;28;20235;-49
2021/03/05 09:50:18;;;;;;;3.25;1.85;;;;;;;;;;5036210;28;20214;-48
2021/03/05 09:52:44;;;;;;;2.83;2.05;;;;;;;;;;5034780;28;20218;-47
2021/03/05 09:55:11;;;;;;;2.60;1.70;;;;;;;;;;5035815;28;20463;-48
2021/03/05 09:57:39;;;;;;;3.25;1.73;;;;;;;;;;5036093;28;20577;-48
2021/03/05 10:00:05;;;;;;;2.72;1.90;;;;;;;;;;5036174;28;20179;-49
2021/03/05 10:02:36;;;;;;;2.20;1.48;;;;;;;;;;5035902;28;20206;-49
2021/03/05 10:05:02;;;;;;;3.42;1.90;;;;;;;;;;5031707;28;20274;-48
2021/03/05 10:07:28;;;;;;;3.47;1.98;;;;;;;;;;5031340;28;20192;-52
2021/03/05 10:10:10;;;;;;;4.70;1.98;;;;;;;;;;5030426;28;20194;-50
2021/03/05 10:12:36;;;;;;;4.45;1.92;;;;;;;;;;5024605;28;20283;-50
2021/03/05 10:15:06;;;;;;;2.20;1.40;;;;;;;;;;5032200;28;20212;-49
2021/03/05 10:17:38;;;;;;;2.35;1.67;;;;;;;;;;5025304;28;20181;-51
2021/03/05 10:20:05;;;;;;;1.70;1.50;;;;;;;;;;5016369;28;20188;-52
2021/03/05 10:22:32;;;;;;;2.85;1.65;;;;;;;;;;5016399;28;20193;-48
2021/03/05 10:24:58;;;;;;;2.92;1.50;;;;;;;;;;5020421;28;20218;-48
2021/03/05 10:27:24;;;;;;;5.53;1.70;;;;;;;;;;5032222;28;20199;-50
2021/03/05 10:29:52;;;;;;;2.55;1.70;;;;;;;;;;5018296;28;20565;-49
2021/03/05 10:32:20;;;;;;;2.22;1.60;;;;;;;;;;5029770;28;20211;-48
2021/03/05 10:34:47;;;;;;;2.13;1.60;;;;;;;;;;5023392;28;20200;-48
2021/03/05 10:37:14;;;;;;;3.85;1.65;;;;;;;;;;5035573;28;20176;-48
2021/03/05 10:39:40;;;;;;;2.08;1.70;;;;;;;;;;5034198;28;20567;-48
2021/03/05 10:42:09;;;;;;;3.47;1.50;;;;;;;;;;5030423;28;20238;-49
2021/03/05 10:44:35;;;;;;;1.60;1.50;;;;;;;;;;5028635;28;20188;-51
2021/03/05 10:47:03;;;;;;;2.55;1.63;;;;;;;;;;5017664;28;20197;-48
2021/03/05 10:49:30;;;;;;;2.83;1.55;;;;;;;;;;5015822;28;20271;-50
2021/03/05 10:51:56;;;;;;;3.13;1.90;;;;;;;;;;5016016;28;20193;-48
2021/03/05 10:54:22;;;;;;;2.63;1.70;;;;;;;;;;5023148;28;20203;-48
2021/03/05 10:56:49;;;;;;;2.92;1.30;;;;;;;;;;5024201;28;20765;-50
2021/03/05 10:59:17;;;;;;;2.17;1.63;;;;;;;;;;5028346;28;20207;-47
2021/03/05 11:01:44;;;;;;;2.40;1.55;;;;;;;;;;5016698;28;20653;-48
2021/03/05 11:04:10;;;;;;;1.30;1.20;;;;;;;;;;5020219;28;20521;-48
2021/03/05 11:06:35;;;;;;;2.38;1.48;;;;;;;;;;5029374;28;20179;-49
2021/03/05 11:09:04;;;;;;;2.58;1.33;;;;;;;;;;5032566;28;20202;-48
2021/03/05 11:11:30;;;;;;;1.65;1.30;;;;;;;;;;5030251;28;20175;-48
2021/03/05 11:13:57;;;;;;;2.40;1.30;;;;;;;;;;5027078;28;20222;-48
2021/03/05 11:16:23;;;;;;;1.88;1.27;;;;;;;;;;5031243;28;20183;-48
2021/03/05 11:18:49;;;;;;;3.15;1.30;;;;;;;;;;5034403;28;20183;-48
2021/03/05 11:21:16;;;;;;;2.20;1.25;;;;;;;;;;5022740;28;20188;-48
2021/03/05 11:23:42;;;;;;;3.47;1.30;;;;;;;;;;5034395;28;20191;-48
2021/03/05 11:26:08;;;;;;;3.30;1.42;;;;;;;;;;5023966;28;20595;-49
2021/03/05 11:28:34;;;;;;;3.05;1.30;;;;;;;;;;5029447;28;20194;-48
2021/03/05 11:31:00;;;;;;;2.50;1.30;;;;;;;;;;5032057;28;20666;-49
2021/03/05 11:33:26;;;;;;;3.97;1.40;;;;;;;;;;5034294;28;20253;-49
2021/03/05 11:35:52;;;;;;;2.60;1.63;;;;;;;;;;5024549;28;20190;-52
2021/03/05 11:38:18;;;;;;;2.20;1.20;;;;;;;;;;5025369;28;20188;-50
2021/03/05 11:40:44;;;;;;;2.10;1.38;;;;;;;;;;5033439;28;20187;-53
2021/03/05 11:43:10;;;;;;;2.75;1.40;;;;;;;;;;5029235;28;20267;-48
2021/03/05 11:45:36;;;;;;;3.17;1.42;;;;;;;;;;5030770;28;20184;-50
2021/03/05 11:48:02;;;;;;;4.32;1.25;;;;;;;;;;5032836;28;20474;-48
2021/03/05 11:50:28;;;;;;;4.25;1.35;;;;;;;;;;5023446;28;20452;-52
2021/03/05 11:52:55;;;;;;;4.85;1.52;;;;;;;;;;5030840;28;20558;-48
2021/03/05 11:55:21;;;;;;;3.20;1.55;;;;;;;;;;5019270;28;20219;-48
2021/03/05 11:57:47;;;;;;;7.45;1.17;;;;;;;;;;5024610;28;20609;-53
2021/03/05 12:00:13;;;;;;;2.70;1.10;;;;;;;;;;5017156;28;20189;-51
2021/03/05 12:02:39;;;;;;;5.63;1.60;;;;;;;;;;5022225;28;20488;-51
2021/03/05 12:05:05;;;;;;;1.75;1.13;;;;;;;;;;5013514;28;20184;-51
2021/03/05 12:07:31;;;;;;;2.90;1.27;;;;;;;;;;5018894;28;20184;-51
2021/03/05 12:09:57;;;;;;;1.77;1.27;;;;;;;;;;5032598;28;20202;-51
2021/03/05 12:12:23;;;;;;;4.72;1.30;;;;;;;;;;5028920;28;20214;-50
2021/03/05 12:14:49;;;;;;;3.78;1.10;;;;;;;;;;5031873;28;20211;-52
2021/03/05 12:17:16;;;;;;;7.53;1.30;;;;;;;;;;5030086;28;20223;-50
2021/03/05 12:19:43;;;;;;;1.85;1.10;;;;;;;;;;5017773;28;20208;-50
2021/03/05 12:22:09;;;;;;;1.77;1.33;;;;;;;;;;5016684;28;20181;-50
2021/03/05 12:24:35;;;;;;;1.48;1.08;;;;;;;;;;5024946;28;20195;-50
2021/03/05 12:27:02;;;;;;;7.07;1.42;;;;;;;;;;5018470;28;20274;-49
2021/03/05 12:29:28;;;;;;;4.72;1.20;;;;;;;;;;5026933;28;20384;-50
2021/03/05 12:31:54;;;;;;;3.80;1.17;;;;;;;;;;5015241;28;20628;-49
2021/03/05 12:34:20;;;;;;;2.00;1.00;;;;;;;;;;5013056;28;20200;-49
2021/03/05 12:36:46;;;;;;;4.25;1.08;;;;;;;;;;5015316;28;20192;-50
2021/03/05 12:39:12;;;;;;;2.25;1.17;;;;;;;;;;5032805;28;20207;-50
2021/03/05 12:41:38;;;;;;;2.83;1.33;;;;;;;;;;5028723;28;20615;-50
2021/03/05 12:44:05;;;;;;;2.80;1.10;;;;;;;;;;5025958;28;20248;-49
2021/03/05 12:46:31;;;;;;;1.95;1.00;;;;;;;;;;5021229;28;20180;-50
2021/03/05 12:48:56;;;;;;;3.40;1.10;;;;;;;;;;5016888;28;20428;-50
2021/03/05 12:51:22;;;;;;;2.20;1.15;;;;;;;;;;5018225;28;20195;-49
2021/03/05 12:53:48;;;;;;;4.50;1.08;;;;;;;;;;5018859;28;20200;-50
2021/03/05 12:56:14;;;;;;;3.42;1.10;;;;;;;;;;5028555;28;20492;-49
2021/03/05 12:58:40;;;;;;;6.18;1.20;;;;;;;;;;5015978;28;20263;-50
2021/03/05 13:01:06;;;;;;;1.65;0.98;;;;;;;;;;5026404;28;20237;-50
2021/03/05 13:03:32;;;;;;;3.88;1.20;;;;;;;;;;5018389;28;20526;-50
2021/03/05 13:05:59;;;;;;;4.55;1.33;;;;;;;;;;5031804;28;20191;-50
2021/03/05 13:08:25;;;;;;;4.88;1.00;;;;;;;;;;5028137;28;20381;-50
2021/03/05 13:10:51;;;;;;;4.50;1.20;;;;;;;;;;5032214;28;20238;-50
2021/03/05 13:13:17;;;;;;;3.63;1.13;;;;;;;;;;5028131;28;20200;-50
2021/03/05 13:15:44;;;;;;;2.60;1.20;;;;;;;;;;5017080;28;20195;-50
2021/03/05 13:18:10;;;;;;;3.53;1.08;;;;;;;;;;5031259;28;20176;-50
2021/03/05 13:20:36;;;;;;;7.57;1.70;;;;;;;;;;5032727;28;20194;-50
2021/03/05 13:23:02;;;;;;;23.85;5.05;;;;;;;;;;5028543;28;20194;-51
2021/03/05 13:25:35;;;;;;;43.13;9.45;;;;;;;;;;5032737;28;20192;-51
2021/03/05 13:28:01;;;;;;;95.78;21.35;;;;;;;;;;5020815;28;20188;-52
2021/03/05 13:30:28;;;;;;;214.00;38.90;;;;;;;;;;5018494;28;20202;-51
2021/03/05 13:32:54;;;;;;;229.88;47.20;;;;;;;;;;5028124;28;20188;-50
2021/03/05 13:35:21;;;;;;;210.02;43.17;;;;;;;;;;5029261;28;20238;-52
2021/03/05 13:37:47;;;;;;;205.48;42.28;;;;;;;;;;5027563;28;20175;-51
2021/03/05 13:40:13;;;;;;;186.13;39.15;;;;;;;;;;5035959;28;20191;-51
2021/03/05 13:42:39;;;;;;;159.07;35.08;;;;;;;;;;5034120;28;20184;-51
2021/03/05 13:45:06;;;;;;;165.65;32.78;;;;;;;;;;5035495;28;20215;-51
2021/03/05 13:47:32;;;;;;;127.82;30.52;;;;;;;;;;5030277;28;20187;-51
2021/03/05 13:49:59;;;;;;;125.72;29.77;;;;;;;;;;5036907;28;20183;-51
2021/03/05 13:52:25;;;;;;;124.40;28.63;;;;;;;;;;5023492;28;20203;-51
2021/03/05 13:54:52;;;;;;;112.72;26.40;;;;;;;;;;5036275;28;20204;-51
2021/03/05 13:57:18;;;;;;;106.15;26.30;;;;;;;;;;5029342;28;20173;-52
2021/03/05 13:59:44;;;;;;;90.28;23.45;;;;;;;;;;5022939;28;20237;-51
2021/03/05 14:02:10;;;;;;;97.47;23.13;;;;;;;;;;5024143;28;20832;-51
2021/03/05 14:04:36;;;;;;;79.13;21.55;;;;;;;;;;5027349;28;20258;-51
2021/03/05 14:07:03;;;;;;;83.47;21.08;;;;;;;;;;5026522;28;20231;-51
2021/03/05 14:09:29;;;;;;;71.00;21.10;;;;;;;;;;5035626;28;20632;-51
2021/03/05 14:11:55;;;;;;;75.90;20.08;;;;;;;;;;5024902;28;20231;-52
2021/03/05 14:14:21;;;;;;;66.45;18.77;;;;;;;;;;5033948;28;20223;-51
2021/03/05 14:16:47;;;;;;;67.38;19.40;;;;;;;;;;5021230;28;20276;-52
2021/03/05 14:19:13;;;;;;;60.85;17.17;;;;;;;;;;5035043;28;20184;-52
2021/03/05 14:21:39;;;;;;;63.15;18.35;;;;;;;;;;5035939;28;20203;-51
2021/03/05 14:24:05;;;;;;;57.30;17.05;;;;;;;;;;5035051;28;20446;-52
2021/03/05 14:26:31;;;;;;;49.92;16.05;;;;;;;;;;5031693;28;20184;-51
2021/03/05 14:28:57;;;;;;;55.95;17.40;;;;;;;;;;5024893;28;20230;-50
2021/03/05 14:31:23;;;;;;;41.40;14.10;;;;;;;;;;5026057;28;20198;-49
2021/03/05 14:33:49;;;;;;;47.83;13.90;;;;;;;;;;5023920;28;20583;-49
2021/03/05 14:36:15;;;;;;;44.08;13.45;;;;;;;;;;5030806;28;20180;-49
2021/03/05 14:38:41;;;;;;;45.75;14.30;;;;;;;;;;5031009;28;20601;-49
2021/03/05 14:41:07;;;;;;;38.72;14.35;;;;;;;;;;5032128;28;20182;-49
2021/03/05 14:43:33;;;;;;;37.22;13.45;;;;;;;;;;5029971;28;20183;-49